sensor_id;sensor_type;location;lat;lon;timestamp;temperature;humidity
22968;DHT22;11650;48.106;-1.696;2023-02-14T00:01:31;6.20;99.90
22968;DHT22;11650;48.106;-1.696;2023-02-14T00:03:56;6.20;99.90
22968;DHT22;11650;48.106;-1.696;2023-02-14T00:06:25;6.20;99.90
22968;DHT22;11650;48.106;-1.696;2023-02-14T00:08:51;6.20;99.90
22968;DHT22;11650;48.106;-1.696;2023-02-14T00:11:19;6.10;99.90
22968;DHT22;11650;48.106;-1.696;2023-02-14T00:13:45;6.10;99.90
22968;DHT22;11650;48.106;-1.696;2023-02-14T00:16:29;6.10;99.90
22968;DHT22;11650;48.106;-1.696;2023-02-14T00:18:55;6.00;99.90
22968;DHT22;11650;48.106;-1.696;2023-02-14T00:21:35;6.00;99.90
22968;DHT22;11650;48.106;-1.696;2023-02-14T00:24:03;6.10;99.90
22968;DHT22;11650;48.106;-1.696;2023-02-14T00:26:28;6.10;99.90
22968;DHT22;11650;48.106;-1.696;2023-02-14T00:28:54;6.00;99.90
22968;DHT22;11650;48.106;-1.696;2023-02-14T00:31:20;6.00;99.90
22968;DHT22;11650;48.106;-1.696;2023-02-14T00:33:46;5.90;99.90
22968;DHT22;11650;48.106;-1.696;2023-02-14T00:36:11;5.90;99.90
22968;DHT22;11650;48.106;-1.696;2023-02-14T00:38:37;5.90;99.90
22968;DHT22;11650;48.106;-1.696;2023-02-14T00:41:03;5.90;99.90
22968;DHT22;11650;48.106;-1.696;2023-02-14T00:43:29;5.90;99.90
22968;DHT22;11650;48.106;-1.696;2023-02-14T00:45:55;5.90;99.90
22968;DHT22;11650;48.106;-1.696;2023-02-14T00:48:21;5.90;99.90
22968;DHT22;11650;48.106;-1.696;2023-02-14T00:50:46;5.80;99.90
22968;DHT22;11650;48.106;-1.696;2023-02-14T00:53:12;5.80;99.90
22968;DHT22;11650;48.106;-1.696;2023-02-14T00:55:38;5.80;99.90
22968;DHT22;11650;48.106;-1.696;2023-02-14T00:58:04;5.80;99.90
22968;DHT22;11650;48.106;-1.696;2023-02-14T01:00:30;5.80;99.90
22968;DHT22;11650;48.106;-1.696;2023-02-14T01:02:56;5.70;99.90
22968;DHT22;11650;48.106;-1.696;2023-02-14T01:05:21;5.70;99.90
22968;DHT22;11650;48.106;-1.696;2023-02-14T01:07:47;5.60;99.90
22968;DHT22;11650;48.106;-1.696;2023-02-14T01:10:13;5.60;99.90
22968;DHT22;11650;48.106;-1.696;2023-02-14T01:12:38;5.60;99.90
22968;DHT22;11650;48.106;-1.696;2023-02-14T01:15:04;5.60;99.90
22968;DHT22;11650;48.106;-1.696;2023-02-14T01:17:30;5.60;99.90
22968;DHT22;11650;48.106;-1.696;2023-02-14T01:19:56;5.60;99.90
22968;DHT22;11650;48.106;-1.696;2023-02-14T01:22:21;5.50;99.90
22968;DHT22;11650;48.106;-1.696;2023-02-14T01:24:47;5.50;99.90
22968;DHT22;11650;48.106;-1.696;2023-02-14T01:27:12;5.40;99.90
22968;DHT22;11650;48.106;-1.696;2023-02-14T01:29:38;5.50;99.90
22968;DHT22;11650;48.106;-1.696;2023-02-14T01:32:04;5.40;99.90
22968;DHT22;11650;48.106;-1.696;2023-02-14T01:34:29;5.40;99.90
22968;DHT22;11650;48.106;-1.696;2023-02-14T01:36:55;5.30;99.90
22968;DHT22;11650;48.106;-1.696;2023-02-14T01:39:21;5.30;99.90
22968;DHT22;11650;48.106;-1.696;2023-02-14T01:41:47;5.30;99.90
22968;DHT22;11650;48.106;-1.696;2023-02-14T01:46:39;5.30;99.90
22968;DHT22;11650;48.106;-1.696;2023-02-14T01:49:14;5.30;99.90
22968;DHT22;11650;48.106;-1.696;2023-02-14T01:51:56;5.20;99.90
22968;DHT22;11650;48.106;-1.696;2023-02-14T01:54:26;5.20;99.90
22968;DHT22;11650;48.106;-1.696;2023-02-14T01:56:56;5.20;99.90
22968;DHT22;11650;48.106;-1.696;2023-02-14T01:59:25;5.20;99.90
22968;DHT22;11650;48.106;-1.696;2023-02-14T02:01:52;5.20;99.90
22968;DHT22;11650;48.106;-1.696;2023-02-14T02:04:25;5.20;99.90
22968;DHT22;11650;48.106;-1.696;2023-02-14T02:06:56;5.20;99.90
22968;DHT22;11650;48.106;-1.696;2023-02-14T02:09:30;5.20;99.90
22968;DHT22;11650;48.106;-1.696;2023-02-14T02:11:57;5.10;99.90
22968;DHT22;11650;48.106;-1.696;2023-02-14T02:14:23;5.10;99.90
22968;DHT22;11650;48.106;-1.696;2023-02-14T02:34:53;4.90;99.90
22968;DHT22;11650;48.106;-1.696;2023-02-14T02:46:04;4.80;99.90
22968;DHT22;11650;48.106;-1.696;2023-02-14T02:48:58;4.70;99.90
22968;DHT22;11650;48.106;-1.696;2023-02-14T02:51:37;4.70;99.90
22968;DHT22;11650;48.106;-1.696;2023-02-14T02:54:44;4.60;99.90
22968;DHT22;11650;48.106;-1.696;2023-02-14T02:57:28;4.60;99.90
22968;DHT22;11650;48.106;-1.696;2023-02-14T02:59:58;4.60;99.90
22968;DHT22;11650;48.106;-1.696;2023-02-14T03:02:51;4.50;99.90
22968;DHT22;11650;48.106;-1.696;2023-02-14T03:05:34;4.50;99.90
22968;DHT22;11650;48.106;-1.696;2023-02-14T03:08:02;4.60;99.90
22968;DHT22;11650;48.106;-1.696;2023-02-14T03:10:31;4.50;99.90
22968;DHT22;11650;48.106;-1.696;2023-02-14T03:13:17;4.50;99.90
22968;DHT22;11650;48.106;-1.696;2023-02-14T03:15:57;4.50;99.90
22968;DHT22;11650;48.106;-1.696;2023-02-14T03:21:32;4.50;99.90
22968;DHT22;11650;48.106;-1.696;2023-02-14T03:35:33;4.30;99.90
22968;DHT22;11650;48.106;-1.696;2023-02-14T03:38:13;4.30;99.90
22968;DHT22;11650;48.106;-1.696;2023-02-14T03:40:49;4.20;99.90
22968;DHT22;11650;48.106;-1.696;2023-02-14T03:43:24;4.20;99.90
22968;DHT22;11650;48.106;-1.696;2023-02-14T03:46:00;4.20;99.90
22968;DHT22;11650;48.106;-1.696;2023-02-14T03:48:29;4.30;99.90
22968;DHT22;11650;48.106;-1.696;2023-02-14T03:50:57;4.30;99.90
22968;DHT22;11650;48.106;-1.696;2023-02-14T03:53:27;4.30;99.90
22968;DHT22;11650;48.106;-1.696;2023-02-14T03:58:34;4.30;99.90
22968;DHT22;11650;48.106;-1.696;2023-02-14T04:01:27;4.30;99.90
22968;DHT22;11650;48.106;-1.696;2023-02-14T04:03:55;4.20;99.90
22968;DHT22;11650;48.106;-1.696;2023-02-14T04:06:21;4.30;99.90
22968;DHT22;11650;48.106;-1.696;2023-02-14T04:08:47;4.30;99.90
22968;DHT22;11650;48.106;-1.696;2023-02-14T04:11:13;4.20;99.90
22968;DHT22;11650;48.106;-1.696;2023-02-14T04:13:38;4.20;99.90
22968;DHT22;11650;48.106;-1.696;2023-02-14T04:16:05;4.10;99.90
22968;DHT22;11650;48.106;-1.696;2023-02-14T04:18:31;4.20;99.90
22968;DHT22;11650;48.106;-1.696;2023-02-14T04:21:16;4.10;99.90
22968;DHT22;11650;48.106;-1.696;2023-02-14T04:23:41;4.20;99.90
22968;DHT22;11650;48.106;-1.696;2023-02-14T04:26:07;4.20;99.90
22968;DHT22;11650;48.106;-1.696;2023-02-14T04:28:33;4.10;99.90
22968;DHT22;11650;48.106;-1.696;2023-02-14T04:31:03;4.10;99.90
22968;DHT22;11650;48.106;-1.696;2023-02-14T04:33:31;4.10;99.90
22968;DHT22;11650;48.106;-1.696;2023-02-14T04:35:58;4.00;99.90
22968;DHT22;11650;48.106;-1.696;2023-02-14T04:38:23;4.00;99.90
22968;DHT22;11650;48.106;-1.696;2023-02-14T04:40:50;4.10;99.90
22968;DHT22;11650;48.106;-1.696;2023-02-14T04:43:16;4.10;99.90
22968;DHT22;11650;48.106;-1.696;2023-02-14T04:45:42;4.00;99.90
22968;DHT22;11650;48.106;-1.696;2023-02-14T04:48:07;3.90;99.90
22968;DHT22;11650;48.106;-1.696;2023-02-14T04:50:33;3.90;99.90
22968;DHT22;11650;48.106;-1.696;2023-02-14T04:52:58;3.90;99.90
22968;DHT22;11650;48.106;-1.696;2023-02-14T04:55:24;3.90;99.90
22968;DHT22;11650;48.106;-1.696;2023-02-14T04:57:50;3.90;99.90
22968;DHT22;11650;48.106;-1.696;2023-02-14T05:00:16;3.90;99.90
22968;DHT22;11650;48.106;-1.696;2023-02-14T05:02:41;3.90;99.90
22968;DHT22;11650;48.106;-1.696;2023-02-14T05:05:07;3.80;99.90
22968;DHT22;11650;48.106;-1.696;2023-02-14T05:07:33;3.80;99.90
22968;DHT22;11650;48.106;-1.696;2023-02-14T05:09:58;3.90;99.90
22968;DHT22;11650;48.106;-1.696;2023-02-14T05:12:24;3.80;99.90
22968;DHT22;11650;48.106;-1.696;2023-02-14T05:14:49;3.80;99.90
22968;DHT22;11650;48.106;-1.696;2023-02-14T05:17:15;3.90;99.90
22968;DHT22;11650;48.106;-1.696;2023-02-14T05:19:41;3.90;99.90
22968;DHT22;11650;48.106;-1.696;2023-02-14T05:22:07;3.80;99.90
22968;DHT22;11650;48.106;-1.696;2023-02-14T05:24:32;3.80;99.90
22968;DHT22;11650;48.106;-1.696;2023-02-14T05:26:58;3.80;99.90
22968;DHT22;11650;48.106;-1.696;2023-02-14T05:29:24;3.70;99.90
22968;DHT22;11650;48.106;-1.696;2023-02-14T05:31:49;3.60;99.90
22968;DHT22;11650;48.106;-1.696;2023-02-14T05:34:15;3.60;99.90
22968;DHT22;11650;48.106;-1.696;2023-02-14T05:36:40;3.60;99.90
22968;DHT22;11650;48.106;-1.696;2023-02-14T05:39:06;3.50;99.90
22968;DHT22;11650;48.106;-1.696;2023-02-14T05:41:32;3.60;99.90
22968;DHT22;11650;48.106;-1.696;2023-02-14T05:43:57;3.60;99.90
22968;DHT22;11650;48.106;-1.696;2023-02-14T05:46:23;3.50;99.90
22968;DHT22;11650;48.106;-1.696;2023-02-14T05:48:48;3.50;99.90
22968;DHT22;11650;48.106;-1.696;2023-02-14T05:51:14;3.50;99.90
22968;DHT22;11650;48.106;-1.696;2023-02-14T05:53:40;3.50;99.90
22968;DHT22;11650;48.106;-1.696;2023-02-14T05:56:05;3.50;99.90
22968;DHT22;11650;48.106;-1.696;2023-02-14T05:58:31;3.50;99.90
22968;DHT22;11650;48.106;-1.696;2023-02-14T06:00:57;3.50;99.90
22968;DHT22;11650;48.106;-1.696;2023-02-14T06:03:23;3.50;99.90
22968;DHT22;11650;48.106;-1.696;2023-02-14T06:05:49;3.50;99.90
22968;DHT22;11650;48.106;-1.696;2023-02-14T06:08:14;3.50;99.90
22968;DHT22;11650;48.106;-1.696;2023-02-14T06:10:40;3.50;99.90
22968;DHT22;11650;48.106;-1.696;2023-02-14T06:13:06;3.60;99.90
22968;DHT22;11650;48.106;-1.696;2023-02-14T06:15:36;3.50;99.90
22968;DHT22;11650;48.106;-1.696;2023-02-14T06:18:02;3.50;99.90
22968;DHT22;11650;48.106;-1.696;2023-02-14T06:20:28;3.40;99.90
22968;DHT22;11650;48.106;-1.696;2023-02-14T06:22:54;3.40;99.90
22968;DHT22;11650;48.106;-1.696;2023-02-14T06:25:20;3.40;99.90
22968;DHT22;11650;48.106;-1.696;2023-02-14T06:27:46;3.40;99.90
22968;DHT22;11650;48.106;-1.696;2023-02-14T06:30:13;3.40;99.90
22968;DHT22;11650;48.106;-1.696;2023-02-14T06:32:39;3.30;99.90
22968;DHT22;11650;48.106;-1.696;2023-02-14T06:35:05;3.30;99.90
22968;DHT22;11650;48.106;-1.696;2023-02-14T06:37:31;3.30;99.90
22968;DHT22;11650;48.106;-1.696;2023-02-14T06:39:57;3.30;99.90
22968;DHT22;11650;48.106;-1.696;2023-02-14T06:42:23;3.30;99.90
22968;DHT22;11650;48.106;-1.696;2023-02-14T06:44:48;3.20;99.90
22968;DHT22;11650;48.106;-1.696;2023-02-14T06:47:14;3.20;99.90
22968;DHT22;11650;48.106;-1.696;2023-02-14T06:49:40;3.20;99.90
22968;DHT22;11650;48.106;-1.696;2023-02-14T06:52:06;3.10;99.90
22968;DHT22;11650;48.106;-1.696;2023-02-14T06:54:31;3.10;99.90
22968;DHT22;11650;48.106;-1.696;2023-02-14T06:56:57;3.10;99.90
22968;DHT22;11650;48.106;-1.696;2023-02-14T06:59:23;3.10;99.90
22968;DHT22;11650;48.106;-1.696;2023-02-14T07:01:49;3.10;99.90
22968;DHT22;11650;48.106;-1.696;2023-02-14T07:04:14;3.10;99.90
22968;DHT22;11650;48.106;-1.696;2023-02-14T07:06:40;3.10;99.90
22968;DHT22;11650;48.106;-1.696;2023-02-14T07:09:06;3.10;99.90
22968;DHT22;11650;48.106;-1.696;2023-02-14T07:11:31;3.10;99.90
22968;DHT22;11650;48.106;-1.696;2023-02-14T07:13:57;3.10;99.90
22968;DHT22;11650;48.106;-1.696;2023-02-14T07:16:23;3.10;99.90
22968;DHT22;11650;48.106;-1.696;2023-02-14T07:18:48;3.20;99.90
22968;DHT22;11650;48.106;-1.696;2023-02-14T07:21:14;3.10;99.90
22968;DHT22;11650;48.106;-1.696;2023-02-14T07:23:40;3.10;99.90
22968;DHT22;11650;48.106;-1.696;2023-02-14T07:26:05;3.20;99.90
22968;DHT22;11650;48.106;-1.696;2023-02-14T07:28:31;3.20;99.90
22968;DHT22;11650;48.106;-1.696;2023-02-14T07:30:59;3.20;99.90
22968;DHT22;11650;48.106;-1.696;2023-02-14T07:33:25;3.20;99.90
22968;DHT22;11650;48.106;-1.696;2023-02-14T07:35:51;3.20;99.90
22968;DHT22;11650;48.106;-1.696;2023-02-14T07:38:17;3.20;99.90
22968;DHT22;11650;48.106;-1.696;2023-02-14T07:40:43;3.20;99.90
22968;DHT22;11650;48.106;-1.696;2023-02-14T07:43:08;3.20;99.90
22968;DHT22;11650;48.106;-1.696;2023-02-14T07:45:34;3.20;99.90
22968;DHT22;11650;48.106;-1.696;2023-02-14T07:48:00;3.30;99.90
22968;DHT22;11650;48.106;-1.696;2023-02-14T07:50:28;3.30;99.90
22968;DHT22;11650;48.106;-1.696;2023-02-14T07:52:55;3.30;99.90
22968;DHT22;11650;48.106;-1.696;2023-02-14T07:55:21;3.40;99.90
22968;DHT22;11650;48.106;-1.696;2023-02-14T07:57:49;3.40;99.90
22968;DHT22;11650;48.106;-1.696;2023-02-14T08:00:16;3.50;99.90
22968;DHT22;11650;48.106;-1.696;2023-02-14T08:02:42;3.60;99.90
22968;DHT22;11650;48.106;-1.696;2023-02-14T08:05:08;3.60;99.90
22968;DHT22;11650;48.106;-1.696;2023-02-14T08:07:34;3.60;99.90
22968;DHT22;11650;48.106;-1.696;2023-02-14T08:10:00;3.70;99.90
22968;DHT22;11650;48.106;-1.696;2023-02-14T08:12:25;3.80;99.90
22968;DHT22;11650;48.106;-1.696;2023-02-14T08:15:10;3.80;99.90
22968;DHT22;11650;48.106;-1.696;2023-02-14T08:17:55;3.90;99.90
22968;DHT22;11650;48.106;-1.696;2023-02-14T08:20:21;4.00;99.90
22968;DHT22;11650;48.106;-1.696;2023-02-14T08:22:47;4.00;99.90
22968;DHT22;11650;48.106;-1.696;2023-02-14T08:25:12;4.10;99.90
22968;DHT22;11650;48.106;-1.696;2023-02-14T08:27:38;4.20;99.90
22968;DHT22;11650;48.106;-1.696;2023-02-14T08:30:04;4.30;99.90
22968;DHT22;11650;48.106;-1.696;2023-02-14T08:32:30;4.40;99.90
22968;DHT22;11650;48.106;-1.696;2023-02-14T08:34:55;4.40;99.90
22968;DHT22;11650;48.106;-1.696;2023-02-14T08:37:21;4.50;99.90
22968;DHT22;11650;48.106;-1.696;2023-02-14T08:39:47;4.60;99.90
22968;DHT22;11650;48.106;-1.696;2023-02-14T08:42:12;4.70;99.90
22968;DHT22;11650;48.106;-1.696;2023-02-14T08:44:38;4.80;99.90
22968;DHT22;11650;48.106;-1.696;2023-02-14T08:47:04;4.90;99.90
22968;DHT22;11650;48.106;-1.696;2023-02-14T08:49:29;5.00;99.90
22968;DHT22;11650;48.106;-1.696;2023-02-14T08:51:55;5.00;99.90
22968;DHT22;11650;48.106;-1.696;2023-02-14T08:54:20;5.20;99.90
22968;DHT22;11650;48.106;-1.696;2023-02-14T08:56:46;5.20;99.90
22968;DHT22;11650;48.106;-1.696;2023-02-14T08:59:12;5.40;99.90
22968;DHT22;11650;48.106;-1.696;2023-02-14T09:01:38;5.60;99.90
22968;DHT22;11650;48.106;-1.696;2023-02-14T09:04:04;5.70;99.90
22968;DHT22;11650;48.106;-1.696;2023-02-14T09:06:30;5.80;99.90
22968;DHT22;11650;48.106;-1.696;2023-02-14T09:08:55;5.90;99.90
22968;DHT22;11650;48.106;-1.696;2023-02-14T09:11:22;6.10;99.90
22968;DHT22;11650;48.106;-1.696;2023-02-14T09:13:50;6.20;99.90
22968;DHT22;11650;48.106;-1.696;2023-02-14T09:16:18;6.30;99.90
22968;DHT22;11650;48.106;-1.696;2023-02-14T09:18:45;6.50;99.90
22968;DHT22;11650;48.106;-1.696;2023-02-14T09:21:20;6.50;99.90
22968;DHT22;11650;48.106;-1.696;2023-02-14T09:23:46;6.50;99.90
22968;DHT22;11650;48.106;-1.696;2023-02-14T09:26:13;6.70;99.90
22968;DHT22;11650;48.106;-1.696;2023-02-14T09:28:39;6.70;99.90
22968;DHT22;11650;48.106;-1.696;2023-02-14T09:31:11;6.80;99.90
22968;DHT22;11650;48.106;-1.696;2023-02-14T09:33:38;7.00;99.90
22968;DHT22;11650;48.106;-1.696;2023-02-14T09:36:04;7.10;99.90
22968;DHT22;11650;48.106;-1.696;2023-02-14T09:38:48;7.20;99.90
22968;DHT22;11650;48.106;-1.696;2023-02-14T09:47:00;7.50;99.90
22968;DHT22;11650;48.106;-1.696;2023-02-14T09:49:36;7.60;99.90
22968;DHT22;11650;48.106;-1.696;2023-02-14T09:52:05;7.70;99.90
22968;DHT22;11650;48.106;-1.696;2023-02-14T09:54:34;7.80;99.90
22968;DHT22;11650;48.106;-1.696;2023-02-14T09:57:02;8.00;99.90
22968;DHT22;11650;48.106;-1.696;2023-02-14T09:59:54;8.00;99.90
22968;DHT22;11650;48.106;-1.696;2023-02-14T10:05:36;8.10;99.90
22968;DHT22;11650;48.106;-1.696;2023-02-14T10:10:48;8.20;99.90
22968;DHT22;11650;48.106;-1.696;2023-02-14T10:13:48;8.30;99.90
22968;DHT22;11650;48.106;-1.696;2023-02-14T10:16:26;8.30;99.90
22968;DHT22;11650;48.106;-1.696;2023-02-14T10:19:03;8.60;99.90
22968;DHT22;11650;48.106;-1.696;2023-02-14T10:21:40;8.80;99.90
22968;DHT22;11650;48.106;-1.696;2023-02-14T10:26:49;9.00;99.90
22968;DHT22;11650;48.106;-1.696;2023-02-14T10:29:18;9.10;99.90
22968;DHT22;11650;48.106;-1.696;2023-02-14T10:31:59;9.20;99.90
22968;DHT22;11650;48.106;-1.696;2023-02-14T10:45:29;9.70;99.90
22968;DHT22;11650;48.106;-1.696;2023-02-14T10:53:56;10.20;99.90
22968;DHT22;11650;48.106;-1.696;2023-02-14T10:56:33;10.30;99.90
22968;DHT22;11650;48.106;-1.696;2023-02-14T10:59:13;10.40;99.90
22968;DHT22;11650;48.106;-1.696;2023-02-14T11:01:41;10.50;99.90
22968;DHT22;11650;48.106;-1.696;2023-02-14T11:04:08;10.60;99.90
22968;DHT22;11650;48.106;-1.696;2023-02-14T11:06:36;10.80;99.90
22968;DHT22;11650;48.106;-1.696;2023-02-14T11:09:02;10.80;99.90
22968;DHT22;11650;48.106;-1.696;2023-02-14T11:11:33;10.70;99.90
22968;DHT22;11650;48.106;-1.696;2023-02-14T11:14:27;10.90;99.90
22968;DHT22;11650;48.106;-1.696;2023-02-14T11:16:55;11.00;99.90
22968;DHT22;11650;48.106;-1.696;2023-02-14T11:21:54;11.20;99.90
22968;DHT22;11650;48.106;-1.696;2023-02-14T11:24:35;11.40;99.90
22968;DHT22;11650;48.106;-1.696;2023-02-14T11:29:42;11.60;99.90
22968;DHT22;11650;48.106;-1.696;2023-02-14T11:32:19;11.70;99.90
22968;DHT22;11650;48.106;-1.696;2023-02-14T11:37:35;11.80;99.90
22968;DHT22;11650;48.106;-1.696;2023-02-14T11:40:03;12.00;99.90
22968;DHT22;11650;48.106;-1.696;2023-02-14T11:42:43;12.00;99.90
22968;DHT22;11650;48.106;-1.696;2023-02-14T11:48:21;12.30;99.90
22968;DHT22;11650;48.106;-1.696;2023-02-14T11:51:04;12.30;99.90
22968;DHT22;11650;48.106;-1.696;2023-02-14T11:56:02;12.40;99.90
22968;DHT22;11650;48.106;-1.696;2023-02-14T11:58:34;12.40;99.90
22968;DHT22;11650;48.106;-1.696;2023-02-14T12:01:01;12.70;99.90
22968;DHT22;11650;48.106;-1.696;2023-02-14T12:03:31;12.90;99.90
22968;DHT22;11650;48.106;-1.696;2023-02-14T12:05:58;12.80;99.90
22968;DHT22;11650;48.106;-1.696;2023-02-14T12:08:29;12.60;99.90
22968;DHT22;11650;48.106;-1.696;2023-02-14T12:11:21;12.80;99.90
22968;DHT22;11650;48.106;-1.696;2023-02-14T12:13:55;12.90;99.90
22968;DHT22;11650;48.106;-1.696;2023-02-14T12:16:50;12.90;99.90
22968;DHT22;11650;48.106;-1.696;2023-02-14T12:19:28;13.10;99.90
22968;DHT22;11650;48.106;-1.696;2023-02-14T12:22:04;13.20;99.90
22968;DHT22;11650;48.106;-1.696;2023-02-14T12:29:59;13.90;99.90
22968;DHT22;11650;48.106;-1.696;2023-02-14T12:32:28;14.00;99.90
22968;DHT22;11650;48.106;-1.696;2023-02-14T12:38:02;13.90;99.90
22968;DHT22;11650;48.106;-1.696;2023-02-14T12:41:02;14.10;99.90
22968;DHT22;11650;48.106;-1.696;2023-02-14T12:56:57;17.20;99.90
22968;DHT22;11650;48.106;-1.696;2023-02-14T13:08:20;18.60;99.90
22968;DHT22;11650;48.106;-1.696;2023-02-14T13:11:10;18.80;99.90
22968;DHT22;11650;48.106;-1.696;2023-02-14T13:21:37;20.60;99.90
22968;DHT22;11650;48.106;-1.696;2023-02-14T13:24:25;20.60;99.90
22968;DHT22;11650;48.106;-1.696;2023-02-14T13:26:55;20.90;99.90
22968;DHT22;11650;48.106;-1.696;2023-02-14T13:29:26;20.80;99.90
22968;DHT22;11650;48.106;-1.696;2023-02-14T13:31:56;20.10;99.90
22968;DHT22;11650;48.106;-1.696;2023-02-14T13:34:35;20.70;99.90
22968;DHT22;11650;48.106;-1.696;2023-02-14T13:37:06;20.60;99.90
22968;DHT22;11650;48.106;-1.696;2023-02-14T13:39:36;20.60;99.90
22968;DHT22;11650;48.106;-1.696;2023-02-14T13:42:03;20.40;99.90
22968;DHT22;11650;48.106;-1.696;2023-02-14T13:44:46;20.60;99.90
22968;DHT22;11650;48.106;-1.696;2023-02-14T13:47:17;20.30;99.90
22968;DHT22;11650;48.106;-1.696;2023-02-14T13:49:58;20.00;99.90
22968;DHT22;11650;48.106;-1.696;2023-02-14T13:55:17;19.50;99.90
22968;DHT22;11650;48.106;-1.696;2023-02-14T13:57:43;19.90;99.90
22968;DHT22;11650;48.106;-1.696;2023-02-14T14:02:44;19.60;99.90
22968;DHT22;11650;48.106;-1.696;2023-02-14T14:10:50;20.90;99.90
22968;DHT22;11650;48.106;-1.696;2023-02-14T14:16:25;21.00;99.90
22968;DHT22;11650;48.106;-1.696;2023-02-14T14:22:01;21.50;99.90
22968;DHT22;11650;48.106;-1.696;2023-02-14T14:24:29;21.70;99.90
22968;DHT22;11650;48.106;-1.696;2023-02-14T14:27:14;21.90;99.90
22968;DHT22;11650;48.106;-1.696;2023-02-14T14:29:45;22.50;99.90
22968;DHT22;11650;48.106;-1.696;2023-02-14T14:32:18;22.50;99.90
22968;DHT22;11650;48.106;-1.696;2023-02-14T14:34:50;23.10;99.90
22968;DHT22;11650;48.106;-1.696;2023-02-14T14:37:19;22.00;99.60
22968;DHT22;11650;48.106;-1.696;2023-02-14T14:39:53;21.40;99.90
22968;DHT22;11650;48.106;-1.696;2023-02-14T14:42:20;19.70;99.90
22968;DHT22;11650;48.106;-1.696;2023-02-14T14:44:56;18.90;99.90
22968;DHT22;11650;48.106;-1.696;2023-02-14T14:47:25;19.50;99.90
22968;DHT22;11650;48.106;-1.696;2023-02-14T14:49:58;20.20;99.90
22968;DHT22;11650;48.106;-1.696;2023-02-14T14:52:34;20.80;99.90
22968;DHT22;11650;48.106;-1.696;2023-02-14T14:55:01;22.70;99.90
22968;DHT22;11650;48.106;-1.696;2023-02-14T14:57:28;23.80;99.30
22968;DHT22;11650;48.106;-1.696;2023-02-14T15:00:17;23.90;98.50
22968;DHT22;11650;48.106;-1.696;2023-02-14T15:02:58;24.70;97.90
22968;DHT22;11650;48.106;-1.696;2023-02-14T15:05:34;24.90;97.70
22968;DHT22;11650;48.106;-1.696;2023-02-14T15:10:53;25.30;96.50
22968;DHT22;11650;48.106;-1.696;2023-02-14T15:13:26;25.30;97.10
22968;DHT22;11650;48.106;-1.696;2023-02-14T15:18:43;25.00;97.00
22968;DHT22;11650;48.106;-1.696;2023-02-14T15:21:09;24.90;96.60
22968;DHT22;11650;48.106;-1.696;2023-02-14T15:23:35;24.70;96.30
22968;DHT22;11650;48.106;-1.696;2023-02-14T15:26:01;24.90;96.80
22968;DHT22;11650;48.106;-1.696;2023-02-14T15:28:30;24.60;96.30
22968;DHT22;11650;48.106;-1.696;2023-02-14T15:30:58;24.70;96.60
22968;DHT22;11650;48.106;-1.696;2023-02-14T15:33:24;24.70;96.10
22968;DHT22;11650;48.106;-1.696;2023-02-14T15:35:50;25.10;96.00
22968;DHT22;11650;48.106;-1.696;2023-02-14T15:38:16;24.50;95.80
22968;DHT22;11650;48.106;-1.696;2023-02-14T15:40:44;24.30;95.90
22968;DHT22;11650;48.106;-1.696;2023-02-14T15:43:35;24.40;95.80
22968;DHT22;11650;48.106;-1.696;2023-02-14T15:48:52;24.10;95.60
22968;DHT22;11650;48.106;-1.696;2023-02-14T15:51:25;24.50;96.00
22968;DHT22;11650;48.106;-1.696;2023-02-14T15:53:58;24.60;95.40
22968;DHT22;11650;48.106;-1.696;2023-02-14T15:56:36;24.40;95.10
22968;DHT22;11650;48.106;-1.696;2023-02-14T15:59:18;24.70;95.30
22968;DHT22;11650;48.106;-1.696;2023-02-14T16:02:24;24.90;95.30
22968;DHT22;11650;48.106;-1.696;2023-02-14T16:04:44;24.50;94.80
22968;DHT22;11650;48.106;-1.696;2023-02-14T16:09:38;24.00;95.40
22968;DHT22;11650;48.106;-1.696;2023-02-14T16:12:36;23.70;94.90
22968;DHT22;11650;48.106;-1.696;2023-02-14T16:15:19;22.90;95.10
22968;DHT22;11650;48.106;-1.696;2023-02-14T16:17:46;22.80;95.20
22968;DHT22;11650;48.106;-1.696;2023-02-14T16:20:26;22.10;96.00
22968;DHT22;11650;48.106;-1.696;2023-02-14T16:23:20;22.00;96.20
22968;DHT22;11650;48.106;-1.696;2023-02-14T16:25:47;22.30;96.40
22968;DHT22;11650;48.106;-1.696;2023-02-14T16:28:13;22.70;95.80
22968;DHT22;11650;48.106;-1.696;2023-02-14T16:30:40;21.70;96.10
22968;DHT22;11650;48.106;-1.696;2023-02-14T16:33:17;21.70;96.50
22968;DHT22;11650;48.106;-1.696;2023-02-14T16:35:44;21.20;96.40
22968;DHT22;11650;48.106;-1.696;2023-02-14T16:38:17;20.00;97.50
22968;DHT22;11650;48.106;-1.696;2023-02-14T16:40:45;18.90;99.20
22968;DHT22;11650;48.106;-1.696;2023-02-14T16:43:16;18.50;99.80
22968;DHT22;11650;48.106;-1.696;2023-02-14T16:45:42;17.30;99.90
22968;DHT22;11650;48.106;-1.696;2023-02-14T16:48:08;16.70;99.90
22968;DHT22;11650;48.106;-1.696;2023-02-14T16:50:36;16.10;99.90
22968;DHT22;11650;48.106;-1.696;2023-02-14T16:53:03;15.50;99.90
22968;DHT22;11650;48.106;-1.696;2023-02-14T16:55:30;15.20;99.90
22968;DHT22;11650;48.106;-1.696;2023-02-14T16:57:56;14.90;99.90
22968;DHT22;11650;48.106;-1.696;2023-02-14T17:00:23;14.70;99.90
22968;DHT22;11650;48.106;-1.696;2023-02-14T17:02:49;14.50;99.90
22968;DHT22;11650;48.106;-1.696;2023-02-14T17:05:15;14.40;99.90
22968;DHT22;11650;48.106;-1.696;2023-02-14T17:07:42;14.30;99.90
22968;DHT22;11650;48.106;-1.696;2023-02-14T17:10:17;14.10;99.90
22968;DHT22;11650;48.106;-1.696;2023-02-14T17:12:44;13.90;99.90
22968;DHT22;11650;48.106;-1.696;2023-02-14T17:15:17;13.80;99.90
22968;DHT22;11650;48.106;-1.696;2023-02-14T17:17:46;13.70;99.90
22968;DHT22;11650;48.106;-1.696;2023-02-14T17:20:13;13.50;99.90
22968;DHT22;11650;48.106;-1.696;2023-02-14T17:22:39;13.40;99.90
22968;DHT22;11650;48.106;-1.696;2023-02-14T17:25:07;13.30;99.90
22968;DHT22;11650;48.106;-1.696;2023-02-14T17:27:33;13.00;99.90
22968;DHT22;11650;48.106;-1.696;2023-02-14T17:29:59;13.00;99.90
22968;DHT22;11650;48.106;-1.696;2023-02-14T17:32:25;12.90;99.90
22968;DHT22;11650;48.106;-1.696;2023-02-14T17:34:51;12.70;99.90
22968;DHT22;11650;48.106;-1.696;2023-02-14T17:37:17;12.60;99.90
22968;DHT22;11650;48.106;-1.696;2023-02-14T17:39:43;12.60;99.90
22968;DHT22;11650;48.106;-1.696;2023-02-14T17:42:09;12.50;99.90
22968;DHT22;11650;48.106;-1.696;2023-02-14T17:44:35;12.40;99.90
22968;DHT22;11650;48.106;-1.696;2023-02-14T17:47:03;12.20;99.90
22968;DHT22;11650;48.106;-1.696;2023-02-14T17:49:29;12.20;99.90
22968;DHT22;11650;48.106;-1.696;2023-02-14T17:51:55;12.00;99.90
22968;DHT22;11650;48.106;-1.696;2023-02-14T17:54:21;12.00;99.90
22968;DHT22;11650;48.106;-1.696;2023-02-14T17:56:47;11.90;99.90
22968;DHT22;11650;48.106;-1.696;2023-02-14T17:59:13;11.80;99.90
22968;DHT22;11650;48.106;-1.696;2023-02-14T18:01:39;11.70;99.90
22968;DHT22;11650;48.106;-1.696;2023-02-14T18:04:04;11.70;99.90
22968;DHT22;11650;48.106;-1.696;2023-02-14T18:06:30;11.60;99.90
22968;DHT22;11650;48.106;-1.696;2023-02-14T18:08:56;11.60;99.90
22968;DHT22;11650;48.106;-1.696;2023-02-14T18:11:24;11.60;99.90
22968;DHT22;11650;48.106;-1.696;2023-02-14T18:13:54;11.60;99.90
22968;DHT22;11650;48.106;-1.696;2023-02-14T18:16:20;11.50;99.90
22968;DHT22;11650;48.106;-1.696;2023-02-14T18:18:46;11.40;99.90